Time;durP1;ratioP1;P1;durP2;ratioP2;P2;SDS_P1;SDS_P2;PMS_P1;PMS_P2;Temp;Humidity;BMP_temperature;BMP_pressure;BME280_temperature;BME280_humidity;BME280_pressure;Samples;Min_cycle;Max_cycle;Signal;HPM_P1;HPM_P2
2023/07/10 00:01:15;;;;;;;1.05;0.93;;;;;;;;;;5066464;28;20036;-87
2023/07/10 00:03:41;;;;;;;0.70;0.70;;;;;;;;;;5085113;28;20037;-86
2023/07/10 00:06:14;;;;;;;2.28;1.33;;;;;;;;;;5087179;28;20032;-85
2023/07/10 00:08:39;;;;;;;0.55;0.55;;;;;;;;;;5067417;28;20032;-84
2023/07/10 00:11:20;;;;;;;1.45;0.95;;;;;;;;;;5066066;28;20379;-85
2023/07/10 00:13:46;;;;;;;2.25;1.13;;;;;;;;;;5088520;28;20107;-86
2023/07/10 00:16:19;;;;;;;3.25;1.17;;;;;;;;;;5065165;28;20476;-86
2023/07/10 00:18:44;;;;;;;0.63;0.50;;;;;;;;;;5062453;28;20029;-84
2023/07/10 00:21:10;;;;;;;0.90;0.60;;;;;;;;;;5060383;28;20043;-85
2023/07/10 00:23:36;;;;;;;1.42;0.90;;;;;;;;;;5067253;28;20031;-84
2023/07/10 00:26:04;;;;;;;1.17;0.95;;;;;;;;;;5068372;28;20032;-85
2023/07/10 00:28:29;;;;;;;0.63;0.57;;;;;;;;;;5066474;28;20111;-88
2023/07/10 00:30:55;;;;;;;0.80;0.70;;;;;;;;;;5072325;28;20040;-87
2023/07/10 00:33:20;;;;;;;1.52;0.80;;;;;;;;;;5092292;28;20024;-84
2023/07/10 00:35:46;;;;;;;1.25;0.73;;;;;;;;;;5070019;28;20027;-84
2023/07/10 00:38:17;;;;;;;1.42;0.95;;;;;;;;;;5089550;28;20020;-87
2023/07/10 00:40:45;;;;;;;1.25;0.77;;;;;;;;;;5090105;28;20021;-85
2023/07/10 00:43:26;;;;;;;0.88;0.80;;;;;;;;;;5085342;28;20027;-85
2023/07/10 00:45:53;;;;;;;1.58;0.90;;;;;;;;;;5068993;28;20044;-85
2023/07/10 00:48:37;;;;;;;2.10;1.15;;;;;;;;;;5075248;28;20024;-86
2023/07/10 00:51:13;;;;;;;1.90;1.35;;;;;;;;;;5087043;28;20050;-85
2023/07/10 00:53:41;;;;;;;1.02;0.75;;;;;;;;;;5088227;28;20106;-85
2023/07/10 00:56:13;;;;;;;1.25;0.98;;;;;;;;;;5088227;28;20084;-86
2023/07/10 00:58:42;;;;;;;1.23;1.00;;;;;;;;;;5069546;28;20035;-84
2023/07/10 01:01:13;;;;;;;0.85;0.85;;;;;;;;;;5068779;28;20432;-86
2023/07/10 01:03:40;;;;;;;2.35;1.60;;;;;;;;;;5074751;28;20032;-85
2023/07/10 01:06:14;;;;;;;0.85;0.82;;;;;;;;;;5067968;28;20020;-85
2023/07/10 01:08:43;;;;;;;1.92;0.70;;;;;;;;;;5084357;28;20020;-85
2023/07/10 01:11:09;;;;;;;2.05;0.68;;;;;;;;;;5087511;28;20020;-84
2023/07/10 01:13:38;;;;;;;1.65;0.98;;;;;;;;;;5071024;28;20031;-86
2023/07/10 01:16:04;;;;;;;1.48;0.80;;;;;;;;;;5087445;28;20036;-85
2023/07/10 01:18:29;;;;;;;1.63;1.08;;;;;;;;;;5065868;28;20027;-85
2023/07/10 01:21:00;;;;;;;0.90;0.80;;;;;;;;;;5087348;28;20027;-85
2023/07/10 01:23:26;;;;;;;1.65;1.08;;;;;;;;;;5069082;28;20479;-85
2023/07/10 01:25:56;;;;;;;1.13;0.75;;;;;;;;;;5068391;28;20021;-85
2023/07/10 01:28:21;;;;;;;1.35;0.90;;;;;;;;;;5066931;28;20087;-84
2023/07/10 01:30:52;;;;;;;3.17;0.95;;;;;;;;;;5088207;28;20028;-84
2023/07/10 01:33:28;;;;;;;0.70;0.70;;;;;;;;;;5069216;28;20027;-87
2023/07/10 01:35:57;;;;;;;0.75;0.75;;;;;;;;;;5085295;28;20028;-86
2023/07/10 01:38:38;;;;;;;0.80;0.75;;;;;;;;;;5066790;28;20066;-86
2023/07/10 01:41:29;;;;;;;1.48;0.98;;;;;;;;;;5065036;28;20074;-85
2023/07/10 01:43:54;;;;;;;2.63;0.93;;;;;;;;;;5071260;28;20035;-85
2023/07/10 01:46:23;;;;;;;1.15;0.95;;;;;;;;;;5085176;28;20036;-85
2023/07/10 01:48:52;;;;;;;1.88;0.82;;;;;;;;;;5067770;28;20032;-85
2023/07/10 01:51:20;;;;;;;0.90;0.70;;;;;;;;;;5087090;28;20479;-84
2023/07/10 01:53:45;;;;;;;2.10;1.50;;;;;;;;;;5084599;28;20248;-83
2023/07/10 01:56:13;;;;;;;0.70;0.63;;;;;;;;;;5067858;28;20472;-84
2023/07/10 01:58:38;;;;;;;0.93;0.77;;;;;;;;;;5066490;28;20058;-85
2023/07/10 02:01:04;;;;;;;1.65;1.35;;;;;;;;;;5071038;28;20044;-85
2023/07/10 02:03:29;;;;;;;1.60;0.98;;;;;;;;;;5084132;28;20056;-85
2023/07/10 02:05:55;;;;;;;0.60;0.50;;;;;;;;;;5088068;28;20380;-85
2023/07/10 02:08:20;;;;;;;1.10;0.93;;;;;;;;;;5062910;28;20020;-85
2023/07/10 02:10:46;;;;;;;1.10;0.80;;;;;;;;;;5064267;28;20020;-85
2023/07/10 02:13:12;;;;;;;1.58;0.95;;;;;;;;;;5068520;28;20486;-85
2023/07/10 02:15:38;;;;;;;2.03;1.48;;;;;;;;;;5065209;28;20098;-84
2023/07/10 02:18:03;;;;;;;0.70;0.70;;;;;;;;;;5066995;28;20439;-85
2023/07/10 02:20:29;;;;;;;1.48;0.63;;;;;;;;;;5083734;28;20035;-84
2023/07/10 02:22:54;;;;;;;1.25;0.65;;;;;;;;;;5087725;28;20023;-84
2023/07/10 02:25:20;;;;;;;4.70;1.98;;;;;;;;;;5070164;28;20024;-86
2023/07/10 02:27:45;;;;;;;1.48;1.00;;;;;;;;;;5086264;28;20475;-85
2023/07/10 02:30:11;;;;;;;1.60;0.88;;;;;;;;;;5064911;28;20020;-86
2023/07/10 02:32:36;;;;;;;1.23;1.08;;;;;;;;;;5083161;28;20028;-85
2023/07/10 02:35:02;;;;;;;1.30;1.15;;;;;;;;;;5068631;28;20024;-85
2023/07/10 02:37:27;;;;;;;1.77;1.02;;;;;;;;;;5064450;28;20059;-86
2023/07/10 02:39:53;;;;;;;1.08;0.85;;;;;;;;;;5066011;28;20411;-87
2023/07/10 02:42:19;;;;;;;1.20;1.10;;;;;;;;;;5064908;28;20032;-87
2023/07/10 02:44:44;;;;;;;1.15;1.08;;;;;;;;;;5086143;28;20050;-86
2023/07/10 02:47:09;;;;;;;1.63;1.25;;;;;;;;;;5083677;28;20072;-87
2023/07/10 02:49:35;;;;;;;0.63;0.63;;;;;;;;;;5061589;28;20028;-86
2023/07/10 02:52:00;;;;;;;2.03;0.80;;;;;;;;;;5085886;28;20029;-88
2023/07/10 02:54:26;;;;;;;2.15;1.48;;;;;;;;;;5087809;28;20036;-86
2023/07/10 02:56:51;;;;;;;1.80;1.30;;;;;;;;;;5066686;28;20025;-86
2023/07/10 02:59:17;;;;;;;1.98;1.10;;;;;;;;;;5063961;28;20032;-85
2023/07/10 03:01:42;;;;;;;2.05;1.00;;;;;;;;;;5071473;28;20025;-86
2023/07/10 03:04:08;;;;;;;1.70;0.82;;;;;;;;;;5085262;28;20020;-85
2023/07/10 03:06:33;;;;;;;1.70;1.40;;;;;;;;;;5081137;28;20076;-85
2023/07/10 03:08:59;;;;;;;0.95;0.80;;;;;;;;;;5081931;28;20024;-85
2023/07/10 03:11:24;;;;;;;1.25;1.15;;;;;;;;;;5091063;28;20020;-87
2023/07/10 03:13:52;;;;;;;1.80;1.02;;;;;;;;;;5090929;28;20429;-87
2023/07/10 03:16:18;;;;;;;1.05;0.80;;;;;;;;;;5082559;28;20038;-86
2023/07/10 03:18:43;;;;;;;1.23;1.00;;;;;;;;;;5068170;28;20032;-87
2023/07/10 03:21:09;;;;;;;0.63;0.63;;;;;;;;;;5080988;28;20024;-88
2023/07/10 03:23:35;;;;;;;1.23;0.80;;;;;;;;;;5085372;28;20038;-87
2023/07/10 03:26:01;;;;;;;0.63;0.63;;;;;;;;;;5067374;28;20020;-87
2023/07/10 03:28:27;;;;;;;0.98;0.88;;;;;;;;;;5082843;28;20574;-86
2023/07/10 03:30:53;;;;;;;1.45;0.90;;;;;;;;;;5074367;28;20047;-86
2023/07/10 03:33:19;;;;;;;5.93;1.15;;;;;;;;;;5088442;28;20039;-85
2023/07/10 03:35:48;;;;;;;1.67;0.80;;;;;;;;;;5070554;28;20391;-85
2023/07/10 03:38:15;;;;;;;1.42;0.95;;;;;;;;;;5086653;28;20058;-86
2023/07/10 03:40:56;;;;;;;0.95;0.80;;;;;;;;;;5071739;28;20369;-86
2023/07/10 03:43:22;;;;;;;1.55;1.05;;;;;;;;;;5069992;28;20044;-87
2023/07/10 03:45:47;;;;;;;1.30;0.73;;;;;;;;;;5075116;28;20044;-87
2023/07/10 03:48:13;;;;;;;1.00;0.90;;;;;;;;;;5089549;28;20503;-87
2023/07/10 03:50:39;;;;;;;1.15;1.05;;;;;;;;;;5091078;28;20016;-89
2023/07/10 03:53:04;;;;;;;0.90;0.70;;;;;;;;;;5088012;28;20119;-88
2023/07/10 03:55:30;;;;;;;1.08;0.80;;;;;;;;;;5070397;28;20356;-87
2023/07/10 03:57:55;;;;;;;1.65;1.10;;;;;;;;;;5075525;28;20111;-87
2023/07/10 04:00:21;;;;;;;0.80;0.63;;;;;;;;;;5070699;28;20035;-86
2023/07/10 04:02:46;;;;;;;0.95;0.88;;;;;;;;;;5072184;28;20031;-88
2023/07/10 04:05:12;;;;;;;2.45;1.23;;;;;;;;;;5073039;28;20426;-86
2023/07/10 04:07:37;;;;;;;3.00;1.20;;;;;;;;;;5072490;28;20427;-84
2023/07/10 04:10:03;;;;;;;2.15;1.20;;;;;;;;;;5076707;28;20068;-86
2023/07/10 04:12:29;;;;;;;1.10;0.93;;;;;;;;;;5072275;28;20050;-86
2023/07/10 04:14:54;;;;;;;2.25;1.30;;;;;;;;;;5072305;28;20035;-85
2023/07/10 04:17:20;;;;;;;1.45;1.08;;;;;;;;;;5085809;28;20039;-87
2023/07/10 04:19:45;;;;;;;0.95;0.80;;;;;;;;;;5086488;28;20028;-87
2023/07/10 04:22:11;;;;;;;2.15;1.23;;;;;;;;;;5086085;28;20477;-85
2023/07/10 04:24:36;;;;;;;1.02;0.70;;;;;;;;;;5073614;28;20463;-86
2023/07/10 04:27:02;;;;;;;1.77;1.17;;;;;;;;;;5066421;28;20028;-85
2023/07/10 04:29:27;;;;;;;1.60;1.40;;;;;;;;;;5070247;28;20361;-86
2023/07/10 04:31:53;;;;;;;1.85;1.38;;;;;;;;;;5087423;28;20024;-87
2023/07/10 04:34:18;;;;;;;1.40;1.23;;;;;;;;;;5069446;28;20038;-85
2023/07/10 04:36:44;;;;;;;2.13;1.85;;;;;;;;;;5071102;28;20023;-87
2023/07/10 04:39:10;;;;;;;1.67;1.52;;;;;;;;;;5089688;28;20179;-85
2023/07/10 04:41:37;;;;;;;1.35;0.95;;;;;;;;;;5075373;28;20028;-87
2023/07/10 04:44:02;;;;;;;2.10;1.33;;;;;;;;;;5071415;28;20448;-86
2023/07/10 04:46:29;;;;;;;1.48;1.38;;;;;;;;;;5071037;28;20055;-85
2023/07/10 04:48:54;;;;;;;1.55;1.35;;;;;;;;;;5092672;28;20033;-86
2023/07/10 04:51:20;;;;;;;1.35;1.00;;;;;;;;;;5067841;28;20028;-87
2023/07/10 04:53:46;;;;;;;1.08;0.98;;;;;;;;;;5072308;28;20040;-86
2023/07/10 04:56:13;;;;;;;1.50;1.00;;;;;;;;;;5088379;28;20032;-87
2023/07/10 04:58:48;;;;;;;2.30;1.85;;;;;;;;;;5073572;28;20038;-87
2023/07/10 05:01:14;;;;;;;0.95;0.93;;;;;;;;;;5071394;28;20097;-91
2023/07/10 05:03:39;;;;;;;2.60;1.48;;;;;;;;;;5072345;28;20027;-88
2023/07/10 05:06:05;;;;;;;1.80;1.50;;;;;;;;;;5071452;28;20028;-87
2023/07/10 05:08:31;;;;;;;2.33;1.20;;;;;;;;;;5067041;28;20040;-87
2023/07/10 05:10:57;;;;;;;1.92;1.58;;;;;;;;;;5073211;28;20356;-84
2023/07/10 05:13:27;;;;;;;2.20;1.77;;;;;;;;;;5071108;28;20527;-87
2023/07/10 05:15:55;;;;;;;1.33;1.17;;;;;;;;;;5071329;28;20028;-86
2023/07/10 05:18:21;;;;;;;3.22;1.90;;;;;;;;;;5089106;28;20040;-85
2023/07/10 05:20:48;;;;;;;1.35;0.93;;;;;;;;;;5067218;28;20029;-87
2023/07/10 05:23:15;;;;;;;1.20;0.85;;;;;;;;;;5090047;28;20020;-85
2023/07/10 05:25:52;;;;;;;1.75;1.20;;;;;;;;;;5063234;28;20040;-86
2023/07/10 05:28:18;;;;;;;3.90;1.10;;;;;;;;;;5082587;28;20048;-84
2023/07/10 05:30:44;;;;;;;1.65;1.27;;;;;;;;;;5079101;28;20029;-83
2023/07/10 05:33:10;;;;;;;1.98;1.30;;;;;;;;;;5068880;28;20028;-82
2023/07/10 05:35:36;;;;;;;1.58;1.17;;;;;;;;;;5086028;28;20039;-85
2023/07/10 05:38:01;;;;;;;2.47;1.17;;;;;;;;;;5083282;28;20019;-84
2023/07/10 05:40:26;;;;;;;1.95;1.77;;;;;;;;;;5086977;28;20039;-83
2023/07/10 05:42:52;;;;;;;1.77;1.65;;;;;;;;;;5080859;28;20020;-84
2023/07/10 05:45:17;;;;;;;1.40;1.15;;;;;;;;;;5061191;28;20050;-84
2023/07/10 05:47:43;;;;;;;1.58;1.40;;;;;;;;;;5085039;28;20217;-83
2023/07/10 05:50:08;;;;;;;2.78;1.27;;;;;;;;;;5069509;28;20024;-84
2023/07/10 05:52:34;;;;;;;7.82;1.10;;;;;;;;;;5069677;28;20035;-85
2023/07/10 05:54:59;;;;;;;0.68;0.63;;;;;;;;;;5082079;28;20043;-85
2023/07/10 05:57:25;;;;;;;1.73;1.23;;;;;;;;;;5083905;28;20494;-84
2023/07/10 05:59:50;;;;;;;2.35;1.50;;;;;;;;;;5069450;28;20024;-83
2023/07/10 06:02:16;;;;;;;1.52;1.00;;;;;;;;;;5083242;28;20033;-85
2023/07/10 06:04:41;;;;;;;3.03;1.65;;;;;;;;;;5068025;28;20024;-83
2023/07/10 06:07:07;;;;;;;1.45;1.05;;;;;;;;;;5083140;28;20099;-83
2023/07/10 06:09:32;;;;;;;2.88;1.10;;;;;;;;;;5061704;28;20032;-83
2023/07/10 06:11:58;;;;;;;0.57;0.50;;;;;;;;;;5087696;28;20028;-85
2023/07/10 06:14:23;;;;;;;5.90;1.00;;;;;;;;;;5087234;28;20123;-86
2023/07/10 06:16:49;;;;;;;1.55;1.17;;;;;;;;;;5083568;28;20024;-86
2023/07/10 06:19:15;;;;;;;0.73;0.73;;;;;;;;;;5066291;28;20103;-84
2023/07/10 06:21:41;;;;;;;0.93;0.90;;;;;;;;;;5065753;28;20059;-85
2023/07/10 06:24:06;;;;;;;0.80;0.73;;;;;;;;;;5083576;28;20063;-83
2023/07/10 06:26:32;;;;;;;0.88;0.82;;;;;;;;;;5067796;28;20024;-82
2023/07/10 06:28:57;;;;;;;0.90;0.70;;;;;;;;;;5086155;28;20078;-85
2023/07/10 06:31:23;;;;;;;1.20;1.10;;;;;;;;;;5085680;28;20069;-84
2023/07/10 06:33:50;;;;;;;1.65;1.00;;;;;;;;;;5079905;28;20472;-82
2023/07/10 06:36:15;;;;;;;2.03;1.23;;;;;;;;;;5074709;28;20031;-82
2023/07/10 06:38:40;;;;;;;1.92;1.15;;;;;;;;;;5085436;28;20020;-82
2023/07/10 06:41:07;;;;;;;1.10;0.82;;;;;;;;;;5083716;28;20036;-81
2023/07/10 06:43:33;;;;;;;2.08;1.20;;;;;;;;;;5073248;28;20108;-84
2023/07/10 06:45:58;;;;;;;0.60;0.60;;;;;;;;;;5085838;28;20090;-81
2023/07/10 06:48:24;;;;;;;0.85;0.77;;;;;;;;;;5068779;28;20465;-82
2023/07/10 06:50:54;;;;;;;1.10;0.82;;;;;;;;;;5083110;28;20108;-82
2023/07/10 06:53:20;;;;;;;1.20;1.10;;;;;;;;;;5082597;28;20025;-83
2023/07/10 06:55:52;;;;;;;2.35;1.42;;;;;;;;;;5084521;28;20468;-83
2023/07/10 06:58:18;;;;;;;1.02;0.60;;;;;;;;;;5087127;28;20034;-82
2023/07/10 07:00:43;;;;;;;1.65;1.33;;;;;;;;;;5085364;28;20016;-84
2023/07/10 07:03:09;;;;;;;1.35;1.00;;;;;;;;;;5082028;28;20027;-81
2023/07/10 07:05:35;;;;;;;1.77;1.23;;;;;;;;;;5088161;28;20476;-83
2023/07/10 07:08:01;;;;;;;1.38;1.23;;;;;;;;;;5085894;28;20024;-85
2023/07/10 07:10:26;;;;;;;0.85;0.82;;;;;;;;;;5087529;28;20395;-84
2023/07/10 07:12:51;;;;;;;0.70;0.70;;;;;;;;;;5094089;28;20027;-84
2023/07/10 07:15:18;;;;;;;1.58;1.00;;;;;;;;;;5086362;28;20499;-81
2023/07/10 07:17:43;;;;;;;0.80;0.80;;;;;;;;;;5082318;28;20527;-81
2023/07/10 07:20:09;;;;;;;1.65;1.08;;;;;;;;;;5074372;28;20092;-84
2023/07/10 07:22:35;;;;;;;1.00;0.93;;;;;;;;;;5085756;28;20115;-81
2023/07/10 07:25:01;;;;;;;2.47;1.30;;;;;;;;;;5068376;28;20028;-85
2023/07/10 07:27:28;;;;;;;1.25;1.02;;;;;;;;;;5067578;28;20487;-85
2023/07/10 07:29:54;;;;;;;1.35;0.80;;;;;;;;;;5070680;28;20027;-85
2023/07/10 07:32:20;;;;;;;0.68;0.65;;;;;;;;;;5077013;28;20031;-84
2023/07/10 07:34:46;;;;;;;0.55;0.55;;;;;;;;;;5094086;28;20028;-85
2023/07/10 07:37:11;;;;;;;1.40;0.90;;;;;;;;;;5090026;28;20047;-84
2023/07/10 07:39:37;;;;;;;1.45;1.05;;;;;;;;;;5094358;28;20028;-86
2023/07/10 07:42:02;;;;;;;0.95;0.85;;;;;;;;;;5093475;28;20437;-85
2023/07/10 07:44:28;;;;;;;0.85;0.85;;;;;;;;;;5065270;28;20028;-81
2023/07/10 07:46:54;;;;;;;0.88;0.82;;;;;;;;;;5087071;28;20048;-84
2023/07/10 07:49:23;;;;;;;1.05;0.90;;;;;;;;;;5083815;28;20065;-81
2023/07/10 07:51:49;;;;;;;1.73;1.30;;;;;;;;;;5090515;28;20039;-81
2023/07/10 07:54:15;;;;;;;1.27;0.60;;;;;;;;;;5082164;28;20113;-81
2023/07/10 07:56:41;;;;;;;0.60;0.60;;;;;;;;;;5061545;28;20430;-81
2023/07/10 07:59:06;;;;;;;1.13;0.70;;;;;;;;;;5086967;28;20115;-82
2023/07/10 08:01:32;;;;;;;1.75;1.17;;;;;;;;;;5087560;28;20494;-81
2023/07/10 08:03:57;;;;;;;1.38;0.93;;;;;;;;;;5072557;28;20035;-82
2023/07/10 08:06:31;;;;;;;0.93;0.80;;;;;;;;;;5093392;28;20035;-83
2023/07/10 08:08:56;;;;;;;1.33;0.80;;;;;;;;;;5078723;28;20031;-81
2023/07/10 08:11:22;;;;;;;0.60;0.60;;;;;;;;;;5093807;28;20024;-84
2023/07/10 08:13:48;;;;;;;0.82;0.77;;;;;;;;;;5098833;28;20100;-84
2023/07/10 08:16:14;;;;;;;1.02;0.77;;;;;;;;;;5090602;28;20051;-85
2023/07/10 08:18:40;;;;;;;1.17;1.08;;;;;;;;;;5065258;28;20368;-83
2023/07/10 08:21:09;;;;;;;0.90;0.85;;;;;;;;;;5077091;28;20024;-84
2023/07/10 08:23:35;;;;;;;1.38;0.77;;;;;;;;;;5090165;28;20032;-84
2023/07/10 08:26:02;;;;;;;1.83;1.30;;;;;;;;;;5073574;28;20028;-85
2023/07/10 08:28:27;;;;;;;1.83;1.33;;;;;;;;;;5070968;28;20337;-83
2023/07/10 08:30:53;;;;;;;0.75;0.75;;;;;;;;;;5068901;28;20107;-84
2023/07/10 08:33:18;;;;;;;1.55;1.25;;;;;;;;;;5066869;28;20058;-85
2023/07/10 08:35:55;;;;;;;1.10;0.90;;;;;;;;;;5083432;28;20112;-86
2023/07/10 08:38:21;;;;;;;0.98;0.80;;;;;;;;;;5067477;28;20024;-86
2023/07/10 08:40:49;;;;;;;0.68;0.57;;;;;;;;;;5071308;28;20502;-86
2023/07/10 08:43:38;;;;;;;1.00;0.85;;;;;;;;;;5068272;28;20024;-83
2023/07/10 08:46:16;;;;;;;0.95;0.75;;;;;;;;;;5092651;28;20088;-85
2023/07/10 08:48:51;;;;;;;1.70;1.00;;;;;;;;;;5082770;28;20032;-82
2023/07/10 08:51:20;;;;;;;1.45;1.02;;;;;;;;;;5063800;28;20025;-81
2023/07/10 08:54:00;;;;;;;0.68;0.68;;;;;;;;;;5065074;28;20021;-80
2023/07/10 08:56:37;;;;;;;1.50;0.82;;;;;;;;;;5078448;28;20064;-83
2023/07/10 08:59:24;;;;;;;0.82;0.60;;;;;;;;;;5067226;28;20020;-80
2023/07/10 09:01:50;;;;;;;0.82;0.70;;;;;;;;;;5086088;28;20027;-79
2023/07/10 09:04:18;;;;;;;1.70;1.20;;;;;;;;;;5067446;28;20027;-82
2023/07/10 09:06:51;;;;;;;1.65;1.05;;;;;;;;;;5069891;28;20485;-89
2023/07/10 09:09:26;;;;;;;0.52;0.52;;;;;;;;;;5066542;28;20028;-84
2023/07/10 09:11:52;;;;;;;1.02;0.70;;;;;;;;;;5069171;28;20028;-84
2023/07/10 09:14:36;;;;;;;1.20;1.10;;;;;;;;;;5084251;28;20055;-82
2023/07/10 09:17:12;;;;;;;0.98;0.82;;;;;;;;;;5083502;28;20422;-85
2023/07/10 09:19:42;;;;;;;1.67;0.65;;;;;;;;;;5089851;28;20425;-84
2023/07/10 09:22:09;;;;;;;;;;;;;;;;;;5082019;28;20032;-83
2023/07/10 09:24:34;;;;;;;0.85;0.77;;;;;;;;;;5064850;28;20429;-83
2023/07/10 09:27:00;;;;;;;1.02;0.88;;;;;;;;;;5081285;28;20024;-84
2023/07/10 09:29:33;;;;;;;0.90;0.68;;;;;;;;;;5081773;28;20039;-82
2023/07/10 09:32:16;;;;;;;2.53;0.85;;;;;;;;;;5079924;28;20031;-84
2023/07/10 09:34:50;;;;;;;3.65;1.38;;;;;;;;;;5066290;28;20024;-84
2023/07/10 09:37:18;;;;;;;1.70;1.02;;;;;;;;;;5063506;28;20024;-80
2023/07/10 09:39:44;;;;;;;1.02;0.80;;;;;;;;;;5084999;28;20078;-81
2023/07/10 09:42:19;;;;;;;1.33;0.93;;;;;;;;;;5086908;28;20484;-81
2023/07/10 09:44:50;;;;;;;3.85;1.33;;;;;;;;;;5066142;28;20503;-81
2023/07/10 09:47:16;;;;;;;1.38;0.93;;;;;;;;;;5061826;28;20484;-81
2023/07/10 09:50:02;;;;;;;2.53;1.30;;;;;;;;;;5063979;28;20494;-82
2023/07/10 09:52:39;;;;;;;1.27;1.15;;;;;;;;;;5090078;28;20453;-88
2023/07/10 09:55:08;;;;;;;0.57;0.52;;;;;;;;;;5077976;28;20062;-84
2023/07/10 09:57:50;;;;;;;0.88;0.70;;;;;;;;;;5068947;28;20472;-84
2023/07/10 10:00:17;;;;;;;1.02;0.82;;;;;;;;;;5086143;28;20028;-84
2023/07/10 10:03:13;;;;;;;1.08;0.98;;;;;;;;;;5084600;28;20031;-88
2023/07/10 10:05:42;;;;;;;1.20;0.98;;;;;;;;;;5085628;28;20535;-86
2023/07/10 10:08:20;;;;;;;1.17;0.82;;;;;;;;;;5072781;28;20035;-89
2023/07/10 10:10:58;;;;;;;0.75;0.75;;;;;;;;;;5084611;28;20088;-87
2023/07/10 10:13:28;;;;;;;1.23;0.93;;;;;;;;;;5070354;28;20086;-84
2023/07/10 10:16:09;;;;;;;0.70;0.70;;;;;;;;;;5071505;28;20073;-86
2023/07/10 10:19:12;;;;;;;1.38;1.05;;;;;;;;;;5075135;28;20024;-88
2023/07/10 10:21:39;;;;;;;0.60;0.60;;;;;;;;;;5024266;28;20026;-86
2023/07/10 10:24:09;;;;;;;0.70;0.57;;;;;;;;;;5076792;28;20441;-87
2023/07/10 10:26:43;;;;;;;1.00;0.85;;;;;;;;;;5084815;28;20028;-86
2023/07/10 10:29:14;;;;;;;0.98;0.63;;;;;;;;;;5091637;28;20070;-87
2023/07/10 10:31:46;;;;;;;0.98;0.82;;;;;;;;;;5064529;28;20028;-82
2023/07/10 10:34:17;;;;;;;1.58;1.00;;;;;;;;;;5071472;28;20030;-84
2023/07/10 10:36:48;;;;;;;0.57;0.50;;;;;;;;;;5085570;28;20052;-79
2023/07/10 10:39:36;;;;;;;0.77;0.70;;;;;;;;;;5097005;28;20043;-81
2023/07/10 10:42:35;;;;;;;1.08;0.85;;;;;;;;;;5091516;28;20028;-80
2023/07/10 10:45:15;;;;;;;1.70;1.10;;;;;;;;;;5092158;28;20103;-82
2023/07/10 10:48:04;;;;;;;0.88;0.80;;;;;;;;;;5067899;28;20054;-82
2023/07/10 10:50:51;;;;;;;0.88;0.75;;;;;;;;;;5073992;28;20456;-83
2023/07/10 10:53:51;;;;;;;1.30;0.90;;;;;;;;;;5093429;28;20127;-80
2023/07/10 10:56:24;;;;;;;0.98;0.70;;;;;;;;;;5070522;28;20036;-81
2023/07/10 10:58:56;;;;;;;0.80;0.70;;;;;;;;;;5093492;28;20031;-80
2023/07/10 11:02:19;;;;;;;0.98;0.80;;;;;;;;;;5079349;28;20384;-81
2023/07/10 11:04:48;;;;;;;2.90;0.88;;;;;;;;;;5042918;28;20094;-82
2023/07/10 11:07:18;;;;;;;0.90;0.65;;;;;;;;;;5031572;28;20021;-81
2023/07/10 11:09:43;;;;;;;1.00;0.90;;;;;;;;;;5071403;28;20040;-82
2023/07/10 11:12:21;;;;;;;0.65;0.57;;;;;;;;;;5099592;28;20028;-81
2023/07/10 11:14:48;;;;;;;0.77;0.75;;;;;;;;;;5076864;28;20051;-82
2023/07/10 11:17:14;;;;;;;0.95;0.88;;;;;;;;;;5096710;28;20103;-83
2023/07/10 11:19:41;;;;;;;1.38;0.90;;;;;;;;;;5094321;28;20142;-83
2023/07/10 11:22:31;;;;;;;0.95;0.80;;;;;;;;;;5087730;28;20025;-84
2023/07/10 11:24:58;;;;;;;1.38;1.08;;;;;;;;;;5090202;28;20114;-83
2023/07/10 11:27:29;;;;;;;1.13;0.90;;;;;;;;;;5071790;28;20499;-85
2023/07/10 11:30:03;;;;;;;0.60;0.60;;;;;;;;;;5099245;28;20024;-86
2023/07/10 11:32:29;;;;;;;2.25;1.00;;;;;;;;;;5076832;28;20059;-84
2023/07/10 11:35:18;;;;;;;0.73;0.70;;;;;;;;;;5068578;28;20117;-85
2023/07/10 11:37:49;;;;;;;1.65;1.02;;;;;;;;;;5075776;28;20027;-84
2023/07/10 11:40:42;;;;;;;0.98;0.82;;;;;;;;;;5088810;28;20024;-81
2023/07/10 11:43:26;;;;;;;1.15;1.05;;;;;;;;;;5087382;28;20376;-83
2023/07/10 11:45:54;;;;;;;1.65;1.00;;;;;;;;;;5091267;28;20041;-81
2023/07/10 11:48:42;;;;;;;0.63;0.52;;;;;;;;;;5073264;28;20110;-82
2023/07/10 11:51:34;;;;;;;0.43;0.43;;;;;;;;;;5094478;28;20471;-82
2023/07/10 11:54:05;;;;;;;1.27;0.90;;;;;;;;;;5083803;28;20379;-82
2023/07/10 11:56:32;;;;;;;0.93;0.82;;;;;;;;;;5089321;28;20398;-83
2023/07/10 11:58:58;;;;;;;1.05;0.98;;;;;;;;;;5080697;28;20036;-82
2023/07/10 12:01:25;;;;;;;1.70;1.05;;;;;;;;;;5082620;28;20081;-82
2023/07/10 12:03:55;;;;;;;2.85;1.20;;;;;;;;;;5091358;28;20411;-82
2023/07/10 12:06:22;;;;;;;;;;;;;;;;;;5069029;28;20111;-83
2023/07/10 12:08:49;;;;;;;1.40;0.82;;;;;;;;;;5077412;28;19981;-82
2023/07/10 12:11:35;;;;;;;1.60;1.00;;;;;;;;;;5093084;28;20055;-81
2023/07/10 12:14:11;;;;;;;1.20;0.80;;;;;;;;;;5086298;28;20390;-84
2023/07/10 12:16:57;;;;;;;0.98;0.80;;;;;;;;;;5090891;28;20100;-82
2023/07/10 12:19:31;;;;;;;0.65;0.63;;;;;;;;;;5072691;28;20383;-81
2023/07/10 12:22:01;;;;;;;1.27;0.95;;;;;;;;;;5088271;28;20037;-79
2023/07/10 12:24:26;;;;;;;2.50;1.42;;;;;;;;;;5088251;28;20028;-79
2023/07/10 12:26:58;;;;;;;0.98;0.80;;;;;;;;;;5084547;28;20032;-79
2023/07/10 12:29:24;;;;;;;0.80;0.70;;;;;;;;;;5086867;28;20073;-80
2023/07/10 12:31:50;;;;;;;1.27;0.88;;;;;;;;;;5091123;28;20099;-80
2023/07/10 12:34:24;;;;;;;1.95;1.10;;;;;;;;;;5076211;28;20028;-79
2023/07/10 12:36:52;;;;;;;0.88;0.70;;;;;;;;;;5087503;28;20082;-80
2023/07/10 12:39:19;;;;;;;1.08;0.75;;;;;;;;;;5090836;28;20364;-80
2023/07/10 12:41:45;;;;;;;0.98;0.80;;;;;;;;;;5082017;28;20020;-81
2023/07/10 12:44:30;;;;;;;0.90;0.77;;;;;;;;;;5070667;28;20027;-78
2023/07/10 12:47:06;;;;;;;2.42;1.50;;;;;;;;;;5086435;28;20048;-79
2023/07/10 12:49:33;;;;;;;1.20;0.95;;;;;;;;;;5069643;28;20047;-81
2023/07/10 12:52:00;;;;;;;1.17;1.08;;;;;;;;;;5084948;28;20046;-83
2023/07/10 12:54:38;;;;;;;1.88;1.05;;;;;;;;;;5078773;28;20104;-81
2023/07/10 12:57:14;;;;;;;2.17;1.60;;;;;;;;;;5070662;28;20387;-83
2023/07/10 12:59:39;;;;;;;1.17;0.82;;;;;;;;;;5078111;28;20168;-82
2023/07/10 13:02:11;;;;;;;1.65;1.10;;;;;;;;;;5073612;28;20028;-83
2023/07/10 13:04:45;;;;;;;5.50;0.93;;;;;;;;;;5061321;28;20032;-81
2023/07/10 13:07:17;;;;;;;0.82;0.80;;;;;;;;;;5094672;28;20471;-80
2023/07/10 13:09:57;;;;;;;0.80;0.80;;;;;;;;;;5066120;28;20019;-81
2023/07/10 13:12:39;;;;;;;1.48;1.15;;;;;;;;;;5090246;28;20128;-81
2023/07/10 13:15:06;;;;;;;1.65;0.95;;;;;;;;;;5090173;28;20416;-80
2023/07/10 13:17:37;;;;;;;1.10;1.00;;;;;;;;;;5063610;28;20127;-81
2023/07/10 13:20:12;;;;;;;0.88;0.70;;;;;;;;;;5091910;28;20036;-80
2023/07/10 13:22:39;;;;;;;1.27;1.00;;;;;;;;;;5064364;28;20036;-82
2023/07/10 13:25:06;;;;;;;1.33;1.15;;;;;;;;;;5079475;28;20410;-80
2023/07/10 13:27:31;;;;;;;1.17;0.90;;;;;;;;;;5070123;28;20043;-81
2023/07/10 13:29:56;;;;;;;0.90;0.80;;;;;;;;;;5063224;28;20031;-79
2023/07/10 13:32:22;;;;;;;1.52;1.25;;;;;;;;;;5085199;28;20115;-79
2023/07/10 13:34:47;;;;;;;1.88;1.38;;;;;;;;;;5085690;28;20102;-79
2023/07/10 13:37:21;;;;;;;2.75;1.13;;;;;;;;;;5069907;28;20058;-80
2023/07/10 13:39:48;;;;;;;2.22;1.35;;;;;;;;;;5084019;28;20028;-79
2023/07/10 13:42:13;;;;;;;1.10;1.00;;;;;;;;;;5062539;28;20083;-82
2023/07/10 13:44:43;;;;;;;2.35;1.40;;;;;;;;;;5085732;28;20451;-82
2023/07/10 13:47:12;;;;;;;;;;;;;;;;;;5084466;28;20052;-82
2023/07/10 13:49:37;;;;;;;1.85;1.35;;;;;;;;;;5080372;28;19961;-81
2023/07/10 13:52:03;;;;;;;1.17;0.90;;;;;;;;;;5080746;28;20423;-82
2023/07/10 13:54:30;;;;;;;1.55;1.02;;;;;;;;;;5078710;28;20052;-81
2023/07/10 13:56:58;;;;;;;1.52;1.08;;;;;;;;;;5086847;28;20031;-83
2023/07/10 13:59:24;;;;;;;1.27;1.15;;;;;;;;;;5065350;28;20032;-80
2023/07/10 14:01:50;;;;;;;2.30;1.40;;;;;;;;;;5084217;28;20036;-82
2023/07/10 14:04:15;;;;;;;5.40;1.35;;;;;;;;;;5081017;28;20031;-83
2023/07/10 14:06:45;;;;;;;1.42;1.30;;;;;;;;;;5085745;28;20042;-82
2023/07/10 14:09:15;;;;;;;1.88;1.05;;;;;;;;;;5081874;28;20021;-81
2023/07/10 14:11:42;;;;;;;1.65;1.27;;;;;;;;;;5064288;28;20031;-80
2023/07/10 14:14:17;;;;;;;1.67;1.13;;;;;;;;;;5082849;28;20035;-80
2023/07/10 14:16:44;;;;;;;1.73;1.27;;;;;;;;;;5064259;28;20051;-81
2023/07/10 14:19:15;;;;;;;1.20;1.10;;;;;;;;;;5082845;28;20047;-83
2023/07/10 14:21:41;;;;;;;2.00;1.30;;;;;;;;;;5076232;28;20033;-82
2023/07/10 14:24:06;;;;;;;0.90;0.90;;;;;;;;;;5079588;28;20099;-82
2023/07/10 14:26:32;;;;;;;1.85;1.27;;;;;;;;;;5087695;28;20027;-83
2023/07/10 14:28:58;;;;;;;1.73;1.40;;;;;;;;;;5079389;28;20028;-82
2023/07/10 14:31:25;;;;;;;2.67;1.30;;;;;;;;;;5066009;28;20073;-82
2023/07/10 14:33:51;;;;;;;2.65;1.48;;;;;;;;;;5071870;28;20468;-82
2023/07/10 14:36:21;;;;;;;1.90;1.30;;;;;;;;;;5082679;28;20115;-83
2023/07/10 14:38:48;;;;;;;1.50;1.40;;;;;;;;;;5082244;28;20036;-82
2023/07/10 14:41:16;;;;;;;1.77;1.27;;;;;;;;;;5069240;28;20043;-84
2023/07/10 14:43:43;;;;;;;1.83;1.20;;;;;;;;;;5084100;28;20036;-82
2023/07/10 14:46:17;;;;;;;1.85;1.20;;;;;;;;;;5080484;28;20427;-80
2023/07/10 14:48:44;;;;;;;1.90;1.27;;;;;;;;;;5080806;28;20114;-83
2023/07/10 14:51:10;;;;;;;2.20;1.35;;;;;;;;;;5086986;28;20027;-81
2023/07/10 14:53:36;;;;;;;1.50;1.23;;;;;;;;;;5087057;28;20039;-82
2023/07/10 14:56:01;;;;;;;2.13;1.40;;;;;;;;;;5082517;28;20023;-83